Getzville 2E NY

43° 01' 25"N, 78° 44' 55"W, Elevation 589 ft.
Eastern Time

Hourly observations for the last 72 hours

Date Time Temperature (°F) Humi-
dity

(%)
Wind
(mph)
Pressure Rain (in) Sun
(W/m2)
ET
(in)
Air Dew 6 Hour 1 Hr 3 Hr 6 Hr Day
Alt
(in)
Sea
Level

(mb)
Max Min
2 08:00 30.6 22.7 72 SSW 1 G 4 30.37 1028.4 0.00 25 0.000
2 07:00 29.0 22.1 29.0 23.6 75 Calm 30.38 1028.9 0.00 0 0.000
2 06:00 28.4 21.8 76 Calm 30.39 1029.3 0.00 0 0.000
2 05:00 28.2 21.3 75 Calm 30.40 1029.5 0.00 0 0.000
2 04:00 28.2 21.6 76 SSW 1 G 4 30.42 1030.1 0.00 0 0.000
2 03:00 27.6 22.2 80 SSW 3 G 5 30.43 1030.4 0.00 0 0.000
2 02:00 24.1 20.5 86 Calm 30.43 1030.6 0.00 0 0.000
2 01:00 23.6 19.8 28.5 23.0 85 Calm 30.44 1030.7 0.00 0 0.000
2 00:00 23.2 19.1 84 Calm 30.44 1030.9 0.00 0 0.036
1 23:00 23.7 19.3 83 Calm 30.44 1030.7 0.00 0 0.036
1 22:00 24.7 20.0 82 Calm 30.46 1031.4 0.00 0 0.036
1 21:00 25.6 19.7 78 Calm 30.47 1032.0 0.00 0 0.036
1 20:00 27.3 20.4 75 W 1 G 3 30.47 1032.0 0.00 0 0.035
1 19:00 28.5 21.0 33.0 28.5 73 W 4 G 11 30.47 1032.0 0.00 0 0.034
1 18:00 29.5 21.9 73 WSW 4 G 9 30.46 1031.7 0.00 0 0.033
1 17:00 30.2 22.3 72 W 3 G 11 30.45 1031.2 0.00 0 0.032
1 16:00 31.6 22.9 70 W 3 G 13 30.44 1030.8 0.00 51 0.030
1 15:00 32.4 23.4 69 W 4 G 17 30.41 1029.8 0.00 32 0.028
1 14:00 32.7 23.3 68 WSW 6 G 24 30.39 1029.3 0.00 207 0.024
1 13:00 32.2 23.2 33.2 28.0 69 WSW 6 G 15 30.38 1029.0 0.00 120 0.019
1 12:00 32.9 23.8 69 W 10 G 24 30.37 1028.4 0.00 265 0.019
1 11:00 31.8 22.4 68 SW 8 G 18 30.34 1027.6 0.00 207 0.011
1 10:00 30.2 21.6 70 W 4 G 25 30.32 1026.7 0.00 123 0.011
1 09:00 28.6 20.7 72 W 8 G 18 30.28 1025.5 0.00 105 0.008
1 08:00 28.3 20.4 72 W 7 G 20 30.25 1024.5 0.00 16 0.008
1 07:00 28.1 20.6 30.1 27.4 73 W 4 G 16 30.21 1023.1 0.00 0 0.006
1 06:00 28.1 21.2 75 W 6 G 17 30.16 1021.5 0.00 0 0.006
1 05:00 27.7 22.9 82 WSW 4 G 14 30.11 1019.8 0.00 0 0.005
1 04:00 28.1 23.0 81 W 10 G 19 30.08 1018.6 0.00 0 0.003
1 03:00 28.4 23.0 80 WNW 10 G 21 30.04 1017.4 0.00 0 0.003
1 02:00 28.9 23.2 79 W 6 G 19 30.01 1016.3 0.00 0 0.002
1 01:00 30.0 22.1 32.8 29.8 72 W 13 G 24 29.99 1015.5 0.00 0 0.001
1 00:00 30.1 21.8 71 WNW 9 G 21 29.96 1014.7 0.92 0 0.026
30 23:00 31.4 23.8 73 W 9 G 20 29.93 1013.7 0.92 0 0.025
30 22:00 32.3 22.9 68 W 9 G 24 29.91 1013.0 0.92 0 0.023
30 21:00 32.7 21.5 63 W 5 G 14 29.90 1012.7 0.92 0 0.021
30 20:00 32.5 22.4 66 W 8 G 20 29.90 1012.5 0.92 0 0.019
30 19:00 31.9 22.5 38.2 31.9 68 W 10 G 19 29.89 1012.3 0.01 0.92 0 0.017
30 18:00 32.4 24.4 72 WSW 6 G 25 29.87 1011.5 0.92 0 0.016
30 17:00 33.2 26.5 76 W 8 G 24 29.83 1010.2 0.92 0 0.015
30 16:00 34.5 27.1 74 W 6 G 25 29.77 1008.2 0.01 0.92 7 0.013
30 15:00 36.7 31.4 81 W 9 G 28 29.71 1006.2 0.92 25 0.012
30 14:00 37.0 34.1 89 W 8 G 25 29.65 1004.0 0.01 0.92 76 0.011
30 13:00 38.2 35.2 48.8 38.2 89 W 10 G 23 29.58 1001.6 0.11 0.33 0.71 0.91 46 0.011
30 12:00 45.0 42.2 90 W 7 G 16 29.52 999.6 0.15 0.80 18 0.009
30 11:00 48.7 46.2 91 SW 7 G 11 29.45 997.2 0.07 0.65 33 0.009
30 10:00 47.8 45.3 91 SSW 5 G 10 29.47 997.9 0.04 0.38 0.58 84 0.007
30 09:00 46.9 44.4 91 S 4 G 13 29.50 999.1 0.12 0.54 26 0.007
30 08:00 45.6 43.1 91 SSW 2 G 4 29.53 1000.1 0.22 0.42 0 0.007
30 07:00 45.9 42.8 48.5 43.5 89 SSW 3 G 6 29.58 1001.7 0.14 0.20 0.20 0.20 0 0.007
30 06:00 46.7 41.8 83 SSW 4 G 8 29.62 1003.2 0.05 0.06 0 0.006
30 05:00 47.8 39.9 74 SW 3 G 7 29.64 1003.6 0.01 0.01 0 0.005
30 04:00 47.3 38.0 70 SSW 5 G 12 29.65 1004.1 0.00 0 0.004
30 03:00 45.8 37.3 72 S 0 G 5 29.68 1005.2 0.00 0 0.003
30 02:00 45.1 37.0 73 SSE 2 G 6 29.73 1006.6 0.00 0 0.002
30 01:00 43.6 37.2 43.6 37.8 78 SSE 2 G 7 29.76 1008.0 0.00 0 0.001
30 00:00 40.2 36.1 85 SE 2 G 6 29.82 1009.9 0.00 0 0.025
29 23:00 38.1 33.7 84 E 0 G 3 29.88 1011.9 0.00 0 0.025
29 22:00 37.8 33.1 83 E 1 G 3 29.91 1012.9 0.00 0 0.025
29 21:00 38.3 33.0 81 ESE 2 G 4 29.95 1014.2 0.00 0 0.024
29 20:00 39.5 33.8 80 E 3 G 7 29.98 1015.3 0.00 0 0.023
29 19:00 40.8 34.5 45.0 40.8 78 ESE 3 G 6 30.02 1016.6 0.00 0 0.022
29 18:00 42.4 35.4 76 SE 2 G 7 30.04 1017.4 0.00 0 0.021
29 17:00 43.6 35.9 74 SSE 2 G 5 30.05 1017.5 0.00 0 0.020
29 16:00 44.4 36.3 73 SE 3 G 8 30.07 1018.2 0.00 16 0.020
29 15:00 44.8 35.6 70 SE 2 G 4 30.08 1018.8 0.00 72 0.017
29 14:00 44.9 35.4 69 SSE 3 G 6 30.10 1019.4 0.00 104 0.015
29 13:00 44.5 34.6 45.0 34.4 68 SE 1 G 3 30.13 1020.2 0.00 137 0.015
29 12:00 44.7 35.2 69 SSW 2 G 5 30.15 1020.9 0.00 255 0.007
29 11:00 43.1 34.7 72 SW 2 G 5 30.17 1021.7 0.00 272 0.007
29 10:00 40.0 33.7 78 SSW 2 G 3 30.19 1022.3 0.00 144 0.001
29 09:00 36.6 31.6 82 ESE 0 G 2 30.18 1022.2 0.00 86 0.001

Data generated by WxSolution Version 1.9.1.5, Build 2018.05.20.